Terminal Aerodrome Forecast
Issued by NWS Boston, MA

Home | Current Version | Previous Version | Text Only | Print | Product List | Glossary On
Versions: 1 2 3 4 5 6 7 8 9 10 11 12 13 14 15 16 17 18 19 20 21 22 23 24 25 26 27 28
000
FTUS41 KBOX 191004 AAA
TAFORH
TAF AMD
KORH 191004Z 1910/2006 21015G25KT P6SM SHRA BKN009 OVC015
      WS020/21040KT
     FM191200 21014KT 3SM +SHRA BR OVC008 WS020/22040KT
     FM191400 23016G34KT P6SM -SHRA OVC020
     FM191600 24017G36KT P6SM VCSH BKN030
     FM191800 28019G40KT P6SM SCT035=

USA.gov is the U.S. government's official web portal to all federal, state and local government web resources and services.